createdAt,value
2018-06-18T07:19:11.523Z,96147.35
2018-06-18T07:21:41.644Z,96154.58
2018-06-18T07:24:11.722Z,96150.89
2018-06-18T07:26:41.721Z,96145.61
2018-06-18T07:29:11.760Z,96139.52
2018-06-18T07:31:41.747Z,96150.92
2018-06-18T07:34:11.815Z,96145.04
2018-06-18T07:36:42.055Z,96139.36
2018-06-18T07:39:12.090Z,96139.36
2018-06-18T07:41:42.111Z,96141.28
2018-06-18T07:44:12.208Z,96137.78
2018-06-18T07:46:42.251Z,96140.81
2018-06-18T07:49:12.264Z,96133.30
2018-06-18T07:51:41.980Z,96132.79
2018-06-18T07:54:12.059Z,96137.70
2018-06-18T07:56:42.042Z,96136.37
2018-06-18T07:59:12.104Z,96138.83
2018-06-18T08:01:42.168Z,96138.83
2018-06-18T08:04:12.161Z,96135.88
2018-06-18T08:06:42.302Z,96134.78
2018-06-18T08:09:13.951Z,96139.09
2018-06-18T08:11:44.533Z,96138.00
2018-06-18T08:14:15.019Z,96142.59
2018-06-18T08:16:45.528Z,96139.63
2018-06-18T08:19:15.797Z,96141.23
2018-06-18T08:21:46.257Z,96147.70
2018-06-18T08:24:16.739Z,96144.72
2018-06-18T08:26:46.831Z,96143.60
2018-06-18T08:29:16.822Z,96142.22
2018-06-18T08:31:46.890Z,96140.84
2018-06-18T08:34:16.969Z,96151.34
2018-06-18T08:36:47.216Z,96153.11
2018-06-18T08:39:17.235Z,96143.31
2018-06-18T08:41:47.285Z,96149.59
2018-06-18T08:44:17.235Z,96155.52
2018-06-18T08:46:49.588Z,96160.39
2018-06-18T08:49:19.782Z,96156.00
2018-06-18T08:51:55.004Z,96150.08
2018-06-18T08:54:29.947Z,96147.09
2018-06-18T08:57:05.048Z,96150.34
2018-06-18T08:59:40.189Z,96150.91
2018-06-18T09:02:10.268Z,96152.41
2018-06-18T09:04:45.279Z,96149.45
2018-06-18T09:07:17.316Z,96149.91
2018-06-18T09:09:47.325Z,96151.77
2018-06-18T09:12:17.391Z,96149.41
2018-06-18T09:14:47.368Z,96149.48
2018-06-18T09:17:17.378Z,96149.05
2018-06-18T09:19:47.385Z,96157.41
2018-06-18T09:26:41.874Z,96156.89
2018-06-18T09:29:11.906Z,96160.98
2018-06-18T09:31:47.224Z,96159.39
2018-06-18T09:34:17.235Z,96167.28
2018-06-18T09:36:47.267Z,96164.50
2018-06-18T09:39:17.234Z,96159.88
2018-06-18T09:41:47.278Z,96164.13
2018-06-18T09:44:17.326Z,96128.98
2018-06-18T09:46:47.423Z,96165.66
2018-06-18T09:49:22.642Z,96164.42
2018-06-18T09:51:57.759Z,96157.79
2018-06-18T09:54:32.795Z,96155.98
2018-06-18T09:57:07.781Z,96145.05
2018-06-18T09:59:58.340Z,96143.77
2018-06-18T10:02:29.314Z,96141.95
2018-06-18T10:05:00.343Z,96141.78
2018-06-18T10:07:30.407Z,96143.97
2018-06-18T10:10:00.411Z,96137.73
2018-06-18T10:12:30.681Z,96136.62
2018-06-18T10:15:00.712Z,96137.77
2018-06-18T10:17:30.788Z,96136.36
2018-06-18T10:20:00.778Z,96141.27
2018-06-18T10:22:30.914Z,96146.59
2018-06-18T10:25:00.955Z,96147.17
2018-06-18T10:27:31.084Z,96141.61
2018-06-18T10:30:01.087Z,96143.81
2018-06-18T10:32:35.919Z,96145.50
2018-06-18T10:37:12.900Z,96138.78
2018-06-18T10:39:48.122Z,96140.64
2018-06-18T10:43:24.830Z,96139.50
2018-06-18T10:45:54.842Z,96136.54
2018-06-18T10:48:25.370Z,96138.66
2018-06-18T10:50:56.065Z,96140.41
2018-06-18T10:53:26.103Z,96135.27
2018-06-18T10:55:56.159Z,96141.06
2018-06-18T10:58:26.213Z,96145.59
2018-06-18T11:01:03.202Z,96151.77
2018-06-18T11:03:34.006Z,96147.05
2018-06-18T11:06:09.136Z,96138.87
2018-06-18T11:08:39.150Z,96144.30
2018-06-18T11:11:09.120Z,96144.23
2018-06-18T11:13:39.149Z,96140.38
2018-06-18T11:16:09.206Z,96133.67
2018-06-18T11:18:44.199Z,96138.22
2018-06-18T11:21:19.397Z,96138.26
2018-06-18T11:23:54.448Z,96140.47
2018-06-18T11:26:29.649Z,96133.91
2018-06-18T11:28:59.619Z,96129.12
2018-06-18T11:31:29.616Z,96126.23
2018-06-18T11:33:59.653Z,96127.13
2018-06-18T11:36:29.632Z,96128.53
2018-06-18T11:38:59.252Z,96125.30
2018-06-18T11:41:29.258Z,96132.38
2018-06-18T11:43:59.310Z,96130.59
2018-06-18T11:46:29.355Z,96136.00
2018-06-18T11:48:59.404Z,96128.37
2018-06-18T11:51:29.040Z,96126.25
2018-06-18T11:53:59.067Z,96122.58
2018-06-18T11:56:29.193Z,96118.77
2018-06-18T11:59:04.250Z,96121.34
2018-06-18T12:01:39.379Z,96120.56
2018-06-18T12:04:14.334Z,96115.82
2018-06-18T12:06:49.419Z,96117.53
2018-06-18T12:09:24.673Z,96113.77
2018-06-18T12:11:54.679Z,96110.31
2018-06-18T12:14:24.789Z,96124.48
2018-06-18T12:16:54.792Z,96107.86
2018-06-18T12:19:24.893Z,96108.77
2018-06-18T12:21:54.908Z,96103.40
2018-06-18T12:24:24.954Z,96109.89
2018-06-18T12:26:55.055Z,96102.17
2018-06-18T12:29:25.150Z,96104.00
2018-06-18T12:31:55.183Z,96098.37
2018-06-18T12:34:25.230Z,96096.41
2018-06-18T12:36:55.222Z,96101.63
2018-06-18T12:39:25.283Z,96103.44
2018-06-18T12:42:03.322Z,96097.72
2018-06-18T12:44:40.444Z,96100.63
2018-06-18T12:47:15.403Z,96094.26
2018-06-18T12:49:50.398Z,96097.72
2018-06-18T12:52:25.490Z,96095.47
2018-06-18T12:55:00.773Z,96095.09
2018-06-18T12:57:30.891Z,96102.94
2018-06-18T13:00:00.934Z,96106.71
2018-06-18T13:02:41.854Z,96099.64
2018-06-18T13:05:11.871Z,96099.52
2018-06-18T13:07:41.880Z,96092.81
2018-06-18T13:10:12.021Z,96100.66
2018-06-18T13:12:41.994Z,96099.91
2018-06-18T13:15:12.011Z,96097.08
2018-06-18T13:17:42.015Z,96091.78
2018-06-18T13:20:12.139Z,96100.52
2018-06-18T13:22:42.109Z,96097.54
2018-06-18T13:25:12.151Z,96102.12
2018-06-18T13:27:47.311Z,96096.85
2018-06-18T13:30:17.345Z,96103.98
2018-06-18T13:32:47.334Z,96103.04
2018-06-18T13:35:16.972Z,96106.27
2018-06-18T13:37:52.084Z,96105.38
2018-06-18T13:40:27.245Z,96107.75
2018-06-18T13:43:02.343Z,96101.63
2018-06-18T13:45:39.414Z,96101.44
2018-06-18T13:48:14.434Z,96104.74
2018-06-18T13:50:44.520Z,96099.84
2018-06-18T13:53:14.549Z,96099.89
2018-06-18T13:55:44.628Z,96102.02
2018-06-18T13:58:14.647Z,96098.22
2018-06-18T14:00:44.288Z,96097.17
2018-06-18T14:03:14.344Z,96098.22
2018-06-18T14:05:44.403Z,96095.47
2018-06-18T14:08:14.398Z,96101.83
2018-06-18T14:10:44.430Z,96104.44
2018-06-18T14:13:14.610Z,96104.48
2018-06-18T14:15:44.568Z,96100.98
2018-06-18T14:18:14.542Z,96100.30
2018-06-18T14:20:44.516Z,96101.05
2018-06-18T14:23:14.547Z,96101.77
2018-06-18T14:25:44.541Z,96100.77
2018-06-18T14:28:14.563Z,96101.72
2018-06-18T14:30:49.735Z,96097.46
2018-06-18T14:33:24.742Z,96106.36
2018-06-18T14:35:59.841Z,96100.50
2018-06-18T14:38:35.102Z,96091.23
2018-06-18T14:41:05.124Z,96092.69
2018-06-18T14:43:35.139Z,96086.84
2018-06-18T14:46:05.257Z,96090.28
2018-06-18T14:48:35.293Z,96092.28
2018-06-18T14:51:05.335Z,96085.53
2018-06-18T14:53:35.366Z,96091.73
2018-06-18T14:56:18.178Z,96088.11
2018-06-18T14:58:53.680Z,96088.30
2018-06-18T15:01:23.677Z,96088.06
2018-06-18T15:03:53.806Z,96088.39
2018-06-18T15:06:23.711Z,96088.92
2018-06-18T15:08:53.748Z,96093.20
2018-06-18T15:11:23.736Z,96090.57
2018-06-18T15:13:53.874Z,96092.44
2018-06-18T15:16:29.069Z,96096.88
2018-06-18T15:18:59.904Z,96093.80
2018-06-18T15:21:32.586Z,96097.09
2018-06-18T15:24:06.533Z,96100.09
2018-06-18T15:26:36.513Z,96091.47
2018-06-18T15:29:06.537Z,96095.02
2018-06-18T15:31:36.512Z,96094.61
2018-06-18T15:34:06.534Z,96090.84
2018-06-18T15:36:36.507Z,96089.98
2018-06-18T15:39:10.233Z,96090.52
2018-06-18T15:41:40.224Z,96085.65
2018-06-18T15:44:10.465Z,96082.47
2018-06-18T15:46:40.269Z,96082.20
2018-06-18T15:49:09.949Z,96081.89
2018-06-18T15:51:39.913Z,96087.91
2018-06-18T15:54:09.510Z,96089.36
2018-06-18T15:56:39.570Z,96084.44
2018-06-18T15:59:09.526Z,96084.05
2018-06-18T16:01:39.554Z,96083.94
2018-06-18T16:04:09.573Z,96087.28
2018-06-18T16:06:39.806Z,96081.11
2018-06-18T16:09:11.018Z,96093.53
2018-06-18T16:11:40.988Z,96094.31
2018-06-18T16:14:11.472Z,96092.56
2018-06-18T16:16:41.869Z,96090.97
2018-06-18T16:19:11.579Z,96098.52
2018-06-18T16:21:41.619Z,96104.41
2018-06-18T16:24:11.796Z,96093.91
2018-06-18T16:26:41.842Z,96111.99
2018-06-18T16:29:11.481Z,96116.58
2018-06-18T16:31:41.499Z,96118.28
2018-06-18T16:34:11.568Z,96113.25
2018-06-18T16:36:41.774Z,96112.84
2018-06-18T16:39:13.675Z,96114.77
2018-06-18T16:41:43.759Z,96112.55
2018-06-18T16:44:13.824Z,96117.38
2018-06-18T16:46:43.475Z,96110.38
2018-06-18T16:49:13.558Z,96111.46
2018-06-18T16:51:43.578Z,96125.41
2018-06-18T16:54:13.655Z,96123.27
2018-06-18T16:56:43.697Z,96120.03
2018-06-18T16:59:13.788Z,96128.59
2018-06-18T17:01:43.876Z,96127.53
2018-06-18T17:04:13.948Z,96125.75
2018-06-18T17:06:44.020Z,96126.31
2018-06-18T17:09:13.690Z,96127.59
2018-06-18T17:11:43.732Z,96122.75
2018-06-18T17:14:13.964Z,96128.02
2018-06-18T17:16:44.369Z,96128.05
2018-06-18T17:19:14.732Z,96133.16
2018-06-18T17:21:44.847Z,96135.66
2018-06-18T17:24:15.262Z,96127.51
2018-06-18T17:26:45.326Z,96126.63
2018-06-18T17:29:15.978Z,96133.19
2018-06-18T17:31:46.284Z,96132.38
2018-06-18T17:34:16.504Z,96131.98
2018-06-18T17:36:46.395Z,96132.65
2018-06-18T17:39:16.763Z,96126.45
2018-06-18T17:41:46.976Z,96130.05
2018-06-18T17:44:17.110Z,96128.77
2018-06-18T17:46:47.110Z,96126.66
2018-06-18T17:49:17.145Z,96128.09
2018-06-18T17:51:47.168Z,96135.78
2018-06-18T17:54:17.213Z,96132.06
2018-06-18T17:56:47.335Z,96128.31
2018-06-18T17:59:17.430Z,96127.30
2018-06-18T18:01:47.571Z,96118.97
2018-06-18T18:04:17.757Z,96122.44
2018-06-18T18:06:47.815Z,96118.73
2018-06-18T18:09:17.813Z,96126.12
2018-06-18T18:11:48.091Z,96117.50
2018-06-18T18:14:18.095Z,96125.08
2018-06-18T18:16:48.183Z,96120.80
2018-06-18T18:19:18.198Z,96123.85
2018-06-18T18:21:48.261Z,96120.09
2018-06-18T18:24:18.355Z,96123.64
2018-06-18T18:26:48.424Z,96130.73
2018-06-18T18:29:18.471Z,96122.88
2018-06-18T18:31:48.642Z,96121.28
2018-06-18T18:34:19.063Z,96118.34
2018-06-18T18:36:49.332Z,96115.07
2018-06-18T18:39:19.422Z,96112.12
2018-06-18T18:41:49.479Z,96115.38
2018-06-18T18:44:19.511Z,96115.94
2018-06-18T18:46:49.690Z,96122.20
2018-06-18T18:49:19.779Z,96126.56
2018-06-18T18:51:50.436Z,96129.25
2018-06-18T18:54:37.867Z,96132.53
2018-06-18T18:57:48.967Z,96128.20
2018-06-18T19:00:18.982Z,96130.66
2018-06-18T19:02:49.065Z,96132.84
2018-06-18T19:05:19.069Z,96146.64
2018-06-18T19:07:49.276Z,96144.47
2018-06-18T19:10:26.968Z,96141.52
2018-06-18T19:12:59.318Z,96150.16
2018-06-18T19:15:29.465Z,96146.67
2018-06-18T19:17:59.535Z,96147.48
2018-06-18T19:20:55.367Z,96151.53
2018-06-18T19:23:25.486Z,96149.11
2018-06-18T19:25:56.654Z,96152.36
2018-06-18T19:28:26.387Z,96157.77
2018-06-18T19:31:17.742Z,96155.59
2018-06-18T19:34:14.279Z,96167.98
2018-06-18T19:36:59.422Z,96181.75
2018-06-18T19:39:34.425Z,96176.33
2018-06-18T19:42:04.625Z,96176.86
2018-06-18T19:44:35.269Z,96182.52
2018-06-18T19:47:21.727Z,96186.02
2018-06-18T19:49:51.802Z,96190.60
2018-06-18T19:52:21.854Z,96204.05
2018-06-18T19:54:57.792Z,96196.99
2018-06-18T19:57:28.026Z,96205.87
2018-06-18T19:59:58.094Z,96210.70
2018-06-18T20:02:28.400Z,96209.31
2018-06-18T20:04:58.961Z,96210.36
2018-06-18T20:07:29.126Z,96212.15
2018-06-18T20:09:59.181Z,96213.19
2018-06-18T20:12:29.587Z,96212.85
2018-06-18T20:14:59.623Z,96210.37
2018-06-18T20:17:29.832Z,96213.80
2018-06-18T20:20:00.026Z,96212.37
2018-06-18T20:22:30.247Z,96217.14
2018-06-18T20:25:00.414Z,96215.74
2018-06-18T20:27:30.693Z,96212.48
2018-06-18T20:30:00.698Z,96221.57
2018-06-18T20:32:31.027Z,96223.13
2018-06-18T20:35:01.075Z,96218.42
2018-06-18T20:37:31.229Z,96222.91
2018-06-18T20:40:01.249Z,96228.21
2018-06-18T20:42:31.569Z,96226.31
2018-06-18T20:45:01.863Z,96224.58
2018-06-18T20:47:31.734Z,96221.59
2018-06-18T20:50:01.716Z,96227.97
2018-06-18T20:52:31.564Z,96223.41
2018-06-18T20:55:01.624Z,96228.52
2018-06-18T20:57:31.985Z,96230.86
2018-06-18T21:00:02.640Z,96244.80
2018-06-18T21:02:33.747Z,96240.93
2018-06-18T21:05:06.361Z,96229.05
2018-06-18T21:07:36.457Z,96230.63
2018-06-18T21:10:06.354Z,96233.02
2018-06-18T21:12:36.503Z,96227.38
2018-06-18T21:15:07.228Z,96229.54
2018-06-18T21:17:37.229Z,96232.75
2018-06-18T21:20:07.273Z,96234.66
2018-06-18T21:22:37.304Z,96241.84
2018-06-18T21:25:07.346Z,96235.89
2018-06-18T21:27:37.337Z,96236.65
2018-06-18T21:30:08.243Z,96230.67
2018-06-18T21:32:38.258Z,96238.14
2018-06-18T21:35:08.302Z,96241.80
2018-06-18T21:37:38.290Z,96246.31
2018-06-18T21:40:08.326Z,96242.28
2018-06-18T21:42:38.353Z,96234.74
2018-06-18T21:45:14.187Z,96240.64
2018-06-18T21:47:44.170Z,96242.47
2018-06-18T21:50:14.210Z,96244.00
2018-06-18T21:52:44.254Z,96236.45
2018-06-18T21:55:14.620Z,96248.73
2018-06-18T21:57:44.666Z,96254.86
2018-06-18T22:00:25.022Z,96249.66
2018-06-18T22:02:55.074Z,96245.06
2018-06-18T22:05:25.097Z,96242.02
2018-06-18T22:07:55.533Z,96241.42
2018-06-18T22:10:25.597Z,96246.45
2018-06-18T22:12:55.602Z,96243.16
2018-06-18T22:15:25.701Z,96245.23
2018-06-18T22:17:55.750Z,96245.23
2018-06-18T22:20:25.480Z,96235.69
2018-06-18T22:22:55.578Z,96248.64
2018-06-18T22:25:25.672Z,96247.31
2018-06-18T22:27:55.941Z,96248.34
2018-06-18T22:30:25.970Z,96250.72
2018-06-18T22:32:56.000Z,96245.34
2018-06-18T22:35:26.127Z,96247.25
2018-06-18T22:37:56.165Z,96255.17
2018-06-18T22:40:26.203Z,96253.52
2018-06-18T22:42:56.225Z,96241.87
2018-06-18T22:45:26.282Z,96242.19
2018-06-18T22:47:56.319Z,96251.97
2018-06-18T22:50:26.381Z,96246.89
2018-06-18T22:52:57.109Z,96244.78
2018-06-18T22:55:27.140Z,96246.89
2018-06-18T22:57:57.186Z,96246.64
2018-06-18T23:00:27.186Z,96255.27
2018-06-18T23:02:57.235Z,96249.11
2018-06-18T23:05:27.807Z,96254.60
2018-06-18T23:07:57.853Z,96245.75
2018-06-18T23:10:27.880Z,96253.81
2018-06-18T23:12:57.861Z,96248.14
2018-06-18T23:15:27.933Z,96247.27
2018-06-18T23:17:57.958Z,96251.80
2018-06-18T23:20:28.012Z,96235.90
2018-06-18T23:22:58.123Z,96242.01
2018-06-18T23:25:28.154Z,96241.34
2018-06-18T23:27:58.186Z,96243.20
2018-06-18T23:30:28.203Z,96242.90
2018-06-18T23:32:58.228Z,96240.47
2018-06-18T23:35:28.262Z,96237.78
2018-06-18T23:37:58.390Z,96247.45
2018-06-18T23:40:28.490Z,96247.12
2018-06-18T23:42:58.162Z,96253.83
2018-06-18T23:45:28.266Z,96253.01
2018-06-18T23:47:58.382Z,96258.33
2018-06-18T23:50:28.549Z,96256.66
2018-06-18T23:52:58.614Z,96268.16
2018-06-18T23:55:28.666Z,96271.31
2018-06-18T23:57:58.654Z,96278.54
